sensor_id;sensor_type;location;lat;lon;timestamp;P1;durP1;ratioP1;P2;durP2;ratioP2
15331;SDS011;7766;51.534;6.722;2023-07-22T00:00:37;12.30;;;9.00;;
15331;SDS011;7766;51.534;6.722;2023-07-22T00:01:38;14.50;;;8.80;;
15331;SDS011;7766;51.534;6.722;2023-07-22T00:02:39;10.87;;;8.27;;
15331;SDS011;7766;51.534;6.722;2023-07-22T00:03:41;13.33;;;8.27;;
15331;SDS011;7766;51.534;6.722;2023-07-22T00:04:42;14.27;;;8.30;;
15331;SDS011;7766;51.534;6.722;2023-07-22T00:05:43;11.73;;;8.90;;
15331;SDS011;7766;51.534;6.722;2023-07-22T00:06:44;12.63;;;8.93;;
15331;SDS011;7766;51.534;6.722;2023-07-22T00:07:45;10.37;;;7.77;;
15331;SDS011;7766;51.534;6.722;2023-07-22T00:08:49;10.37;;;8.33;;
15331;SDS011;7766;51.534;6.722;2023-07-22T00:09:50;13.80;;;8.73;;
15331;SDS011;7766;51.534;6.722;2023-07-22T00:10:51;12.40;;;8.73;;
15331;SDS011;7766;51.534;6.722;2023-07-22T00:11:52;10.33;;;8.67;;
15331;SDS011;7766;51.534;6.722;2023-07-22T00:12:53;10.43;;;7.73;;
15331;SDS011;7766;51.534;6.722;2023-07-22T00:13:54;10.90;;;8.20;;
15331;SDS011;7766;51.534;6.722;2023-07-22T00:14:55;12.67;;;8.80;;
15331;SDS011;7766;51.534;6.722;2023-07-22T00:15:56;9.83;;;7.90;;
15331;SDS011;7766;51.534;6.722;2023-07-22T00:16:59;11.57;;;8.47;;
15331;SDS011;7766;51.534;6.722;2023-07-22T00:18:00;11.47;;;8.70;;
15331;SDS011;7766;51.534;6.722;2023-07-22T00:19:01;10.53;;;8.10;;
15331;SDS011;7766;51.534;6.722;2023-07-22T00:20:02;10.10;;;7.87;;
15331;SDS011;7766;51.534;6.722;2023-07-22T00:21:04;10.80;;;8.20;;
15331;SDS011;7766;51.534;6.722;2023-07-22T00:22:06;10.73;;;7.67;;
15331;SDS011;7766;51.534;6.722;2023-07-22T00:23:07;10.20;;;7.40;;
15331;SDS011;7766;51.534;6.722;2023-07-22T00:24:10;11.63;;;7.83;;
15331;SDS011;7766;51.534;6.722;2023-07-22T00:25:11;9.27;;;7.63;;
15331;SDS011;7766;51.534;6.722;2023-07-22T00:26:13;12.70;;;7.50;;
15331;SDS011;7766;51.534;6.722;2023-07-22T00:27:14;10.33;;;7.97;;
15331;SDS011;7766;51.534;6.722;2023-07-22T00:28:15;12.17;;;8.10;;
15331;SDS011;7766;51.534;6.722;2023-07-22T00:29:16;8.10;;;7.17;;
15331;SDS011;7766;51.534;6.722;2023-07-22T00:30:17;9.40;;;7.73;;
15331;SDS011;7766;51.534;6.722;2023-07-22T00:31:18;8.73;;;7.20;;
15331;SDS011;7766;51.534;6.722;2023-07-22T00:32:19;10.27;;;7.53;;
15331;SDS011;7766;51.534;6.722;2023-07-22T00:33:20;10.37;;;7.93;;
15331;SDS011;7766;51.534;6.722;2023-07-22T00:34:21;10.23;;;7.23;;
15331;SDS011;7766;51.534;6.722;2023-07-22T00:35:23;11.17;;;7.23;;
15331;SDS011;7766;51.534;6.722;2023-07-22T00:36:24;8.97;;;6.83;;
15331;SDS011;7766;51.534;6.722;2023-07-22T00:37:25;11.00;;;7.50;;
15331;SDS011;7766;51.534;6.722;2023-07-22T00:38:27;10.33;;;7.57;;
15331;SDS011;7766;51.534;6.722;2023-07-22T00:39:28;10.80;;;7.80;;
15331;SDS011;7766;51.534;6.722;2023-07-22T00:40:29;9.30;;;7.40;;
15331;SDS011;7766;51.534;6.722;2023-07-22T00:41:32;8.40;;;7.43;;
15331;SDS011;7766;51.534;6.722;2023-07-22T00:42:33;9.40;;;7.40;;
15331;SDS011;7766;51.534;6.722;2023-07-22T00:43:33;10.00;;;7.67;;
15331;SDS011;7766;51.534;6.722;2023-07-22T00:44:35;10.83;;;7.47;;
15331;SDS011;7766;51.534;6.722;2023-07-22T00:45:37;7.93;;;7.00;;
15331;SDS011;7766;51.534;6.722;2023-07-22T00:46:38;8.97;;;7.03;;
15331;SDS011;7766;51.534;6.722;2023-07-22T00:47:39;10.73;;;7.60;;
15331;SDS011;7766;51.534;6.722;2023-07-22T00:48:41;9.73;;;7.10;;
15331;SDS011;7766;51.534;6.722;2023-07-22T00:49:42;12.97;;;7.47;;
15331;SDS011;7766;51.534;6.722;2023-07-22T00:50:44;8.93;;;7.17;;
15331;SDS011;7766;51.534;6.722;2023-07-22T00:51:45;12.60;;;7.70;;
15331;SDS011;7766;51.534;6.722;2023-07-22T00:52:46;11.17;;;6.83;;
15331;SDS011;7766;51.534;6.722;2023-07-22T00:53:47;8.70;;;6.77;;
15331;SDS011;7766;51.534;6.722;2023-07-22T00:54:49;12.80;;;7.20;;
15331;SDS011;7766;51.534;6.722;2023-07-22T00:55:50;9.67;;;7.13;;
15331;SDS011;7766;51.534;6.722;2023-07-22T00:56:51;8.17;;;6.80;;
15331;SDS011;7766;51.534;6.722;2023-07-22T00:57:54;11.97;;;6.83;;
15331;SDS011;7766;51.534;6.722;2023-07-22T00:58:55;9.20;;;7.37;;
15331;SDS011;7766;51.534;6.722;2023-07-22T00:59:56;8.47;;;6.80;;
15331;SDS011;7766;51.534;6.722;2023-07-22T01:00:58;9.20;;;6.83;;
15331;SDS011;7766;51.534;6.722;2023-07-22T01:01:59;9.87;;;7.37;;
15331;SDS011;7766;51.534;6.722;2023-07-22T01:02:59;8.67;;;7.03;;
15331;SDS011;7766;51.534;6.722;2023-07-22T01:04:00;8.70;;;7.10;;
15331;SDS011;7766;51.534;6.722;2023-07-22T01:05:04;9.77;;;6.87;;
15331;SDS011;7766;51.534;6.722;2023-07-22T01:06:05;8.57;;;7.07;;
15331;SDS011;7766;51.534;6.722;2023-07-22T01:07:07;11.37;;;7.23;;
15331;SDS011;7766;51.534;6.722;2023-07-22T01:08:11;8.90;;;7.03;;
15331;SDS011;7766;51.534;6.722;2023-07-22T01:09:12;8.73;;;7.23;;
15331;SDS011;7766;51.534;6.722;2023-07-22T01:10:13;8.43;;;6.63;;
15331;SDS011;7766;51.534;6.722;2023-07-22T01:11:14;9.07;;;7.57;;
15331;SDS011;7766;51.534;6.722;2023-07-22T01:12:15;9.53;;;7.23;;
15331;SDS011;7766;51.534;6.722;2023-07-22T01:13:17;10.90;;;7.50;;
15331;SDS011;7766;51.534;6.722;2023-07-22T01:14:17;8.57;;;6.87;;
15331;SDS011;7766;51.534;6.722;2023-07-22T01:15:19;8.70;;;6.77;;
15331;SDS011;7766;51.534;6.722;2023-07-22T01:16:20;8.50;;;6.67;;
15331;SDS011;7766;51.534;6.722;2023-07-22T01:17:22;10.57;;;8.07;;
15331;SDS011;7766;51.534;6.722;2023-07-22T01:18:23;9.93;;;7.20;;
15331;SDS011;7766;51.534;6.722;2023-07-22T01:19:24;10.23;;;7.53;;
15331;SDS011;7766;51.534;6.722;2023-07-22T01:20:26;8.53;;;6.50;;
15331;SDS011;7766;51.534;6.722;2023-07-22T01:21:28;9.03;;;6.60;;
15331;SDS011;7766;51.534;6.722;2023-07-22T01:22:31;8.13;;;6.97;;
15331;SDS011;7766;51.534;6.722;2023-07-22T01:23:33;14.50;;;7.40;;
15331;SDS011;7766;51.534;6.722;2023-07-22T01:24:36;10.40;;;6.50;;
15331;SDS011;7766;51.534;6.722;2023-07-22T01:25:38;10.60;;;6.63;;
15331;SDS011;7766;51.534;6.722;2023-07-22T01:26:40;9.03;;;6.80;;
15331;SDS011;7766;51.534;6.722;2023-07-22T01:27:41;7.53;;;6.40;;
15331;SDS011;7766;51.534;6.722;2023-07-22T01:28:43;9.03;;;6.27;;
15331;SDS011;7766;51.534;6.722;2023-07-22T01:29:44;8.70;;;6.93;;
15331;SDS011;7766;51.534;6.722;2023-07-22T01:30:45;8.23;;;7.03;;
15331;SDS011;7766;51.534;6.722;2023-07-22T01:31:48;8.73;;;7.43;;
15331;SDS011;7766;51.534;6.722;2023-07-22T01:32:51;11.40;;;9.57;;
15331;SDS011;7766;51.534;6.722;2023-07-22T01:33:52;12.90;;;9.50;;
15331;SDS011;7766;51.534;6.722;2023-07-22T01:34:53;11.27;;;8.50;;
15331;SDS011;7766;51.534;6.722;2023-07-22T01:35:54;12.20;;;8.60;;
15331;SDS011;7766;51.534;6.722;2023-07-22T01:36:55;11.27;;;8.70;;
15331;SDS011;7766;51.534;6.722;2023-07-22T01:37:56;12.07;;;8.80;;
15331;SDS011;7766;51.534;6.722;2023-07-22T01:38:57;10.43;;;8.10;;
15331;SDS011;7766;51.534;6.722;2023-07-22T01:39:59;12.13;;;8.83;;
15331;SDS011;7766;51.534;6.722;2023-07-22T01:41:00;10.03;;;8.23;;
15331;SDS011;7766;51.534;6.722;2023-07-22T01:42:01;8.33;;;7.47;;
15331;SDS011;7766;51.534;6.722;2023-07-22T01:43:03;10.10;;;6.90;;
15331;SDS011;7766;51.534;6.722;2023-07-22T01:44:04;8.43;;;7.03;;
15331;SDS011;7766;51.534;6.722;2023-07-22T01:45:06;10.63;;;7.57;;
15331;SDS011;7766;51.534;6.722;2023-07-22T01:46:07;10.03;;;6.93;;
15331;SDS011;7766;51.534;6.722;2023-07-22T01:47:09;9.33;;;6.90;;
15331;SDS011;7766;51.534;6.722;2023-07-22T01:48:10;8.73;;;7.23;;
15331;SDS011;7766;51.534;6.722;2023-07-22T01:49:11;9.33;;;6.70;;
15331;SDS011;7766;51.534;6.722;2023-07-22T01:50:12;11.03;;;7.27;;
15331;SDS011;7766;51.534;6.722;2023-07-22T01:51:13;8.80;;;6.77;;
15331;SDS011;7766;51.534;6.722;2023-07-22T01:52:14;9.73;;;7.33;;
15331;SDS011;7766;51.534;6.722;2023-07-22T01:53:15;8.13;;;6.90;;
15331;SDS011;7766;51.534;6.722;2023-07-22T01:54:17;9.83;;;7.07;;
15331;SDS011;7766;51.534;6.722;2023-07-22T01:55:18;9.43;;;6.47;;
15331;SDS011;7766;51.534;6.722;2023-07-22T01:56:19;11.47;;;7.17;;
15331;SDS011;7766;51.534;6.722;2023-07-22T01:57:20;7.50;;;6.40;;
15331;SDS011;7766;51.534;6.722;2023-07-22T01:58:21;8.20;;;6.57;;
15331;SDS011;7766;51.534;6.722;2023-07-22T01:59:22;9.30;;;7.17;;
15331;SDS011;7766;51.534;6.722;2023-07-22T02:00:23;10.83;;;7.00;;
15331;SDS011;7766;51.534;6.722;2023-07-22T02:01:24;7.73;;;6.40;;
15331;SDS011;7766;51.534;6.722;2023-07-22T02:02:26;9.03;;;6.57;;
15331;SDS011;7766;51.534;6.722;2023-07-22T02:03:27;7.97;;;6.43;;
15331;SDS011;7766;51.534;6.722;2023-07-22T02:04:28;8.17;;;6.33;;
15331;SDS011;7766;51.534;6.722;2023-07-22T02:05:29;9.33;;;6.63;;
15331;SDS011;7766;51.534;6.722;2023-07-22T02:06:30;11.90;;;6.87;;
15331;SDS011;7766;51.534;6.722;2023-07-22T02:07:31;8.90;;;6.07;;
15331;SDS011;7766;51.534;6.722;2023-07-22T02:08:33;8.90;;;6.70;;
15331;SDS011;7766;51.534;6.722;2023-07-22T02:09:34;7.93;;;6.30;;
15331;SDS011;7766;51.534;6.722;2023-07-22T02:10:35;10.77;;;7.27;;
15331;SDS011;7766;51.534;6.722;2023-07-22T02:11:36;9.47;;;7.23;;
15331;SDS011;7766;51.534;6.722;2023-07-22T02:12:37;9.13;;;7.10;;
15331;SDS011;7766;51.534;6.722;2023-07-22T02:13:38;10.00;;;6.90;;
15331;SDS011;7766;51.534;6.722;2023-07-22T02:14:39;10.60;;;7.17;;
15331;SDS011;7766;51.534;6.722;2023-07-22T02:15:40;8.33;;;6.40;;
15331;SDS011;7766;51.534;6.722;2023-07-22T02:16:42;10.73;;;6.90;;
15331;SDS011;7766;51.534;6.722;2023-07-22T02:17:42;9.53;;;6.20;;
15331;SDS011;7766;51.534;6.722;2023-07-22T02:18:43;8.60;;;6.27;;
15331;SDS011;7766;51.534;6.722;2023-07-22T02:19:44;8.97;;;6.43;;
15331;SDS011;7766;51.534;6.722;2023-07-22T02:20:45;10.10;;;6.60;;
15331;SDS011;7766;51.534;6.722;2023-07-22T02:21:46;9.00;;;6.47;;
15331;SDS011;7766;51.534;6.722;2023-07-22T02:22:48;9.17;;;6.87;;
15331;SDS011;7766;51.534;6.722;2023-07-22T02:23:49;8.70;;;6.43;;
15331;SDS011;7766;51.534;6.722;2023-07-22T02:24:50;10.17;;;6.67;;
15331;SDS011;7766;51.534;6.722;2023-07-22T02:25:51;10.20;;;7.10;;
15331;SDS011;7766;51.534;6.722;2023-07-22T02:26:53;8.20;;;6.47;;
15331;SDS011;7766;51.534;6.722;2023-07-22T02:27:54;9.67;;;6.50;;
15331;SDS011;7766;51.534;6.722;2023-07-22T02:28:55;10.03;;;6.77;;
15331;SDS011;7766;51.534;6.722;2023-07-22T02:29:56;9.80;;;5.83;;
15331;SDS011;7766;51.534;6.722;2023-07-22T02:31:00;9.77;;;6.30;;
15331;SDS011;7766;51.534;6.722;2023-07-22T02:32:05;9.17;;;6.77;;
15331;SDS011;7766;51.534;6.722;2023-07-22T02:33:08;6.93;;;6.03;;
15331;SDS011;7766;51.534;6.722;2023-07-22T02:34:09;7.50;;;6.10;;
15331;SDS011;7766;51.534;6.722;2023-07-22T02:35:10;7.47;;;6.30;;
15331;SDS011;7766;51.534;6.722;2023-07-22T02:36:11;8.57;;;6.37;;
15331;SDS011;7766;51.534;6.722;2023-07-22T02:37:13;9.47;;;6.53;;
15331;SDS011;7766;51.534;6.722;2023-07-22T02:38:14;9.87;;;6.90;;
15331;SDS011;7766;51.534;6.722;2023-07-22T02:39:15;9.33;;;6.90;;
15331;SDS011;7766;51.534;6.722;2023-07-22T02:40:16;8.10;;;6.67;;
15331;SDS011;7766;51.534;6.722;2023-07-22T02:41:17;8.20;;;6.57;;
15331;SDS011;7766;51.534;6.722;2023-07-22T02:42:18;9.77;;;6.77;;
15331;SDS011;7766;51.534;6.722;2023-07-22T02:43:19;10.87;;;6.67;;
15331;SDS011;7766;51.534;6.722;2023-07-22T02:44:20;10.17;;;7.00;;
15331;SDS011;7766;51.534;6.722;2023-07-22T02:45:21;10.00;;;6.60;;
15331;SDS011;7766;51.534;6.722;2023-07-22T02:46:22;9.53;;;7.10;;
15331;SDS011;7766;51.534;6.722;2023-07-22T02:47:25;9.13;;;6.53;;
15331;SDS011;7766;51.534;6.722;2023-07-22T02:48:26;8.30;;;6.77;;
15331;SDS011;7766;51.534;6.722;2023-07-22T02:49:27;8.73;;;7.20;;
15331;SDS011;7766;51.534;6.722;2023-07-22T02:50:29;8.83;;;7.30;;
15331;SDS011;7766;51.534;6.722;2023-07-22T02:51:31;7.80;;;6.43;;
15331;SDS011;7766;51.534;6.722;2023-07-22T02:52:32;11.10;;;7.53;;
15331;SDS011;7766;51.534;6.722;2023-07-22T02:53:33;7.90;;;6.20;;
15331;SDS011;7766;51.534;6.722;2023-07-22T02:54:39;7.77;;;6.50;;
15331;SDS011;7766;51.534;6.722;2023-07-22T02:55:41;11.33;;;6.80;;
15331;SDS011;7766;51.534;6.722;2023-07-22T02:56:42;8.40;;;6.60;;
15331;SDS011;7766;51.534;6.722;2023-07-22T02:57:43;10.03;;;6.90;;
15331;SDS011;7766;51.534;6.722;2023-07-22T02:58:44;8.43;;;6.43;;
15331;SDS011;7766;51.534;6.722;2023-07-22T02:59:45;9.97;;;6.90;;
15331;SDS011;7766;51.534;6.722;2023-07-22T03:00:47;8.70;;;6.43;;
15331;SDS011;7766;51.534;6.722;2023-07-22T03:01:48;7.93;;;6.90;;
15331;SDS011;7766;51.534;6.722;2023-07-22T03:02:50;7.67;;;6.70;;
15331;SDS011;7766;51.534;6.722;2023-07-22T03:04:00;8.60;;;6.47;;
15331;SDS011;7766;51.534;6.722;2023-07-22T03:05:01;9.43;;;6.83;;
15331;SDS011;7766;51.534;6.722;2023-07-22T03:06:10;8.70;;;6.60;;
15331;SDS011;7766;51.534;6.722;2023-07-22T03:07:11;14.33;;;6.73;;
15331;SDS011;7766;51.534;6.722;2023-07-22T03:08:12;7.63;;;6.07;;
15331;SDS011;7766;51.534;6.722;2023-07-22T03:09:13;8.63;;;6.73;;
15331;SDS011;7766;51.534;6.722;2023-07-22T03:10:14;8.67;;;6.60;;
15331;SDS011;7766;51.534;6.722;2023-07-22T03:11:15;9.87;;;6.27;;
15331;SDS011;7766;51.534;6.722;2023-07-22T03:12:16;8.97;;;6.77;;
15331;SDS011;7766;51.534;6.722;2023-07-22T03:13:17;9.13;;;7.10;;
15331;SDS011;7766;51.534;6.722;2023-07-22T03:14:18;10.03;;;6.60;;
15331;SDS011;7766;51.534;6.722;2023-07-22T03:15:21;9.07;;;6.30;;
15331;SDS011;7766;51.534;6.722;2023-07-22T03:16:23;10.93;;;6.87;;
15331;SDS011;7766;51.534;6.722;2023-07-22T03:17:24;9.33;;;6.47;;
15331;SDS011;7766;51.534;6.722;2023-07-22T03:18:25;9.40;;;6.60;;
15331;SDS011;7766;51.534;6.722;2023-07-22T03:19:26;8.43;;;6.50;;
15331;SDS011;7766;51.534;6.722;2023-07-22T03:20:27;10.17;;;6.97;;
15331;SDS011;7766;51.534;6.722;2023-07-22T03:21:28;6.90;;;5.93;;
15331;SDS011;7766;51.534;6.722;2023-07-22T03:22:29;8.63;;;6.87;;
15331;SDS011;7766;51.534;6.722;2023-07-22T03:23:31;9.33;;;6.90;;
15331;SDS011;7766;51.534;6.722;2023-07-22T03:24:32;10.43;;;7.03;;
15331;SDS011;7766;51.534;6.722;2023-07-22T03:25:34;12.70;;;7.43;;
15331;SDS011;7766;51.534;6.722;2023-07-22T03:26:35;9.87;;;7.10;;
15331;SDS011;7766;51.534;6.722;2023-07-22T03:27:36;8.67;;;7.00;;
15331;SDS011;7766;51.534;6.722;2023-07-22T03:28:38;9.43;;;6.47;;
15331;SDS011;7766;51.534;6.722;2023-07-22T03:29:41;8.73;;;6.47;;
15331;SDS011;7766;51.534;6.722;2023-07-22T03:30:42;8.70;;;6.93;;
15331;SDS011;7766;51.534;6.722;2023-07-22T03:31:43;10.43;;;6.30;;
15331;SDS011;7766;51.534;6.722;2023-07-22T03:32:45;9.40;;;6.50;;
15331;SDS011;7766;51.534;6.722;2023-07-22T03:33:53;9.13;;;6.70;;
15331;SDS011;7766;51.534;6.722;2023-07-22T03:34:54;8.50;;;7.20;;
15331;SDS011;7766;51.534;6.722;2023-07-22T03:35:55;12.97;;;7.00;;
15331;SDS011;7766;51.534;6.722;2023-07-22T03:36:56;10.47;;;6.97;;
15331;SDS011;7766;51.534;6.722;2023-07-22T03:37:58;9.33;;;6.47;;
15331;SDS011;7766;51.534;6.722;2023-07-22T03:38:59;8.83;;;6.57;;
15331;SDS011;7766;51.534;6.722;2023-07-22T03:40:01;9.07;;;6.37;;
15331;SDS011;7766;51.534;6.722;2023-07-22T03:41:04;8.27;;;6.47;;
15331;SDS011;7766;51.534;6.722;2023-07-22T03:42:05;9.33;;;6.30;;
15331;SDS011;7766;51.534;6.722;2023-07-22T03:43:06;10.60;;;6.13;;
15331;SDS011;7766;51.534;6.722;2023-07-22T03:44:07;10.90;;;6.47;;
15331;SDS011;7766;51.534;6.722;2023-07-22T03:45:08;9.10;;;6.67;;
15331;SDS011;7766;51.534;6.722;2023-07-22T03:46:09;8.50;;;6.87;;
15331;SDS011;7766;51.534;6.722;2023-07-22T03:47:11;9.70;;;6.97;;
15331;SDS011;7766;51.534;6.722;2023-07-22T03:48:12;7.80;;;6.53;;
15331;SDS011;7766;51.534;6.722;2023-07-22T03:49:13;8.80;;;6.43;;
15331;SDS011;7766;51.534;6.722;2023-07-22T03:50:14;9.57;;;6.20;;
15331;SDS011;7766;51.534;6.722;2023-07-22T03:51:15;10.17;;;6.60;;
15331;SDS011;7766;51.534;6.722;2023-07-22T03:52:16;10.10;;;6.83;;
15331;SDS011;7766;51.534;6.722;2023-07-22T03:53:18;8.00;;;6.23;;
15331;SDS011;7766;51.534;6.722;2023-07-22T03:54:19;7.57;;;5.90;;
15331;SDS011;7766;51.534;6.722;2023-07-22T03:55:20;7.90;;;6.17;;
15331;SDS011;7766;51.534;6.722;2023-07-22T03:56:21;8.80;;;6.50;;
15331;SDS011;7766;51.534;6.722;2023-07-22T03:57:27;9.67;;;6.53;;
15331;SDS011;7766;51.534;6.722;2023-07-22T03:58:28;9.23;;;6.70;;
15331;SDS011;7766;51.534;6.722;2023-07-22T03:59:29;8.07;;;6.33;;
15331;SDS011;7766;51.534;6.722;2023-07-22T04:00:30;7.93;;;6.17;;
15331;SDS011;7766;51.534;6.722;2023-07-22T04:01:31;9.97;;;6.87;;
15331;SDS011;7766;51.534;6.722;2023-07-22T04:02:32;10.80;;;6.47;;
15331;SDS011;7766;51.534;6.722;2023-07-22T04:03:33;9.17;;;7.03;;
15331;SDS011;7766;51.534;6.722;2023-07-22T04:04:34;8.20;;;6.13;;
15331;SDS011;7766;51.534;6.722;2023-07-22T04:05:35;8.83;;;5.83;;
15331;SDS011;7766;51.534;6.722;2023-07-22T04:06:36;9.87;;;6.93;;
15331;SDS011;7766;51.534;6.722;2023-07-22T04:07:37;8.70;;;6.83;;
15331;SDS011;7766;51.534;6.722;2023-07-22T04:08:39;10.27;;;6.77;;
15331;SDS011;7766;51.534;6.722;2023-07-22T04:09:40;8.50;;;6.30;;
15331;SDS011;7766;51.534;6.722;2023-07-22T04:10:41;12.57;;;7.37;;
15331;SDS011;7766;51.534;6.722;2023-07-22T04:11:50;9.67;;;7.30;;
15331;SDS011;7766;51.534;6.722;2023-07-22T04:12:53;9.53;;;6.37;;
15331;SDS011;7766;51.534;6.722;2023-07-22T04:13:54;9.27;;;6.27;;
15331;SDS011;7766;51.534;6.722;2023-07-22T04:14:55;10.50;;;7.33;;
15331;SDS011;7766;51.534;6.722;2023-07-22T04:15:56;10.27;;;6.70;;
15331;SDS011;7766;51.534;6.722;2023-07-22T04:16:57;11.10;;;6.93;;
15331;SDS011;7766;51.534;6.722;2023-07-22T04:17:58;8.60;;;6.90;;
15331;SDS011;7766;51.534;6.722;2023-07-22T04:18:59;9.77;;;6.50;;
15331;SDS011;7766;51.534;6.722;2023-07-22T04:20:01;8.07;;;6.60;;
15331;SDS011;7766;51.534;6.722;2023-07-22T04:21:02;9.83;;;6.43;;
15331;SDS011;7766;51.534;6.722;2023-07-22T04:22:04;8.83;;;6.37;;
15331;SDS011;7766;51.534;6.722;2023-07-22T04:23:06;8.30;;;6.60;;
15331;SDS011;7766;51.534;6.722;2023-07-22T04:24:07;10.07;;;7.37;;
15331;SDS011;7766;51.534;6.722;2023-07-22T04:25:10;11.07;;;6.53;;
15331;SDS011;7766;51.534;6.722;2023-07-22T04:26:11;10.27;;;7.50;;
15331;SDS011;7766;51.534;6.722;2023-07-22T04:27:12;7.67;;;6.43;;
15331;SDS011;7766;51.534;6.722;2023-07-22T04:28:13;10.07;;;6.90;;
15331;SDS011;7766;51.534;6.722;2023-07-22T04:29:15;8.90;;;6.57;;
15331;SDS011;7766;51.534;6.722;2023-07-22T04:30:16;9.57;;;6.80;;
15331;SDS011;7766;51.534;6.722;2023-07-22T04:31:20;8.23;;;6.40;;
15331;SDS011;7766;51.534;6.722;2023-07-22T04:32:21;8.53;;;6.63;;
15331;SDS011;7766;51.534;6.722;2023-07-22T04:33:22;11.80;;;7.03;;
15331;SDS011;7766;51.534;6.722;2023-07-22T04:34:28;9.17;;;6.80;;
15331;SDS011;7766;51.534;6.722;2023-07-22T04:35:31;10.80;;;6.50;;
15331;SDS011;7766;51.534;6.722;2023-07-22T04:36:33;8.43;;;6.53;;
15331;SDS011;7766;51.534;6.722;2023-07-22T04:37:34;9.43;;;7.00;;
15331;SDS011;7766;51.534;6.722;2023-07-22T04:38:35;10.13;;;6.73;;
15331;SDS011;7766;51.534;6.722;2023-07-22T04:39:36;9.23;;;6.97;;
15331;SDS011;7766;51.534;6.722;2023-07-22T04:40:42;9.97;;;7.00;;
15331;SDS011;7766;51.534;6.722;2023-07-22T04:41:43;8.10;;;6.47;;
15331;SDS011;7766;51.534;6.722;2023-07-22T04:42:44;11.50;;;7.00;;
15331;SDS011;7766;51.534;6.722;2023-07-22T04:43:46;10.37;;;6.57;;
15331;SDS011;7766;51.534;6.722;2023-07-22T04:44:47;10.13;;;6.77;;
15331;SDS011;7766;51.534;6.722;2023-07-22T04:45:48;9.30;;;7.50;;
15331;SDS011;7766;51.534;6.722;2023-07-22T04:46:49;12.33;;;6.83;;
15331;SDS011;7766;51.534;6.722;2023-07-22T04:47:51;11.40;;;6.37;;
15331;SDS011;7766;51.534;6.722;2023-07-22T04:48:55;9.10;;;6.87;;
15331;SDS011;7766;51.534;6.722;2023-07-22T04:49:58;7.97;;;6.70;;
15331;SDS011;7766;51.534;6.722;2023-07-22T04:50:59;9.60;;;7.30;;
15331;SDS011;7766;51.534;6.722;2023-07-22T04:52:00;8.90;;;6.90;;
15331;SDS011;7766;51.534;6.722;2023-07-22T04:53:01;11.20;;;7.57;;
15331;SDS011;7766;51.534;6.722;2023-07-22T04:54:02;11.40;;;7.03;;
15331;SDS011;7766;51.534;6.722;2023-07-22T04:55:03;11.83;;;7.67;;
15331;SDS011;7766;51.534;6.722;2023-07-22T04:56:08;8.83;;;6.83;;
15331;SDS011;7766;51.534;6.722;2023-07-22T04:57:09;10.53;;;7.27;;
15331;SDS011;7766;51.534;6.722;2023-07-22T04:58:10;9.33;;;6.60;;
15331;SDS011;7766;51.534;6.722;2023-07-22T04:59:11;9.10;;;6.90;;
15331;SDS011;7766;51.534;6.722;2023-07-22T05:00:14;9.20;;;7.33;;
15331;SDS011;7766;51.534;6.722;2023-07-22T05:01:19;8.93;;;6.83;;
15331;SDS011;7766;51.534;6.722;2023-07-22T05:02:20;10.67;;;7.33;;
15331;SDS011;7766;51.534;6.722;2023-07-22T05:03:21;10.33;;;7.40;;
15331;SDS011;7766;51.534;6.722;2023-07-22T05:04:25;11.53;;;6.83;;
15331;SDS011;7766;51.534;6.722;2023-07-22T05:05:26;9.37;;;7.10;;
15331;SDS011;7766;51.534;6.722;2023-07-22T05:06:28;10.47;;;6.93;;
15331;SDS011;7766;51.534;6.722;2023-07-22T05:07:29;11.77;;;7.03;;
15331;SDS011;7766;51.534;6.722;2023-07-22T05:08:30;9.57;;;6.83;;
15331;SDS011;7766;51.534;6.722;2023-07-22T05:09:31;9.97;;;6.70;;
15331;SDS011;7766;51.534;6.722;2023-07-22T05:10:33;9.77;;;6.60;;
15331;SDS011;7766;51.534;6.722;2023-07-22T05:11:34;9.00;;;6.93;;
15331;SDS011;7766;51.534;6.722;2023-07-22T05:12:35;9.80;;;7.20;;
15331;SDS011;7766;51.534;6.722;2023-07-22T05:13:36;10.20;;;6.47;;
15331;SDS011;7766;51.534;6.722;2023-07-22T05:14:37;7.77;;;6.90;;
15331;SDS011;7766;51.534;6.722;2023-07-22T05:15:38;9.73;;;6.87;;
15331;SDS011;7766;51.534;6.722;2023-07-22T05:16:39;12.83;;;7.23;;
15331;SDS011;7766;51.534;6.722;2023-07-22T05:17:40;8.27;;;6.53;;
15331;SDS011;7766;51.534;6.722;2023-07-22T05:18:41;9.30;;;6.83;;
15331;SDS011;7766;51.534;6.722;2023-07-22T05:19:42;10.13;;;6.70;;
15331;SDS011;7766;51.534;6.722;2023-07-22T05:20:43;8.20;;;6.30;;
15331;SDS011;7766;51.534;6.722;2023-07-22T05:21:45;9.20;;;6.73;;
15331;SDS011;7766;51.534;6.722;2023-07-22T05:22:46;9.73;;;6.43;;
15331;SDS011;7766;51.534;6.722;2023-07-22T05:23:48;9.30;;;6.90;;
15331;SDS011;7766;51.534;6.722;2023-07-22T05:24:49;9.93;;;6.67;;
15331;SDS011;7766;51.534;6.722;2023-07-22T05:25:51;7.27;;;5.77;;
15331;SDS011;7766;51.534;6.722;2023-07-22T05:26:53;7.67;;;6.10;;
15331;SDS011;7766;51.534;6.722;2023-07-22T05:27:54;8.40;;;6.23;;
15331;SDS011;7766;51.534;6.722;2023-07-22T05:28:55;10.57;;;6.87;;
15331;SDS011;7766;51.534;6.722;2023-07-22T05:29:56;9.33;;;6.37;;
15331;SDS011;7766;51.534;6.722;2023-07-22T05:30:57;8.20;;;6.67;;
15331;SDS011;7766;51.534;6.722;2023-07-22T05:31:58;10.77;;;6.37;;
15331;SDS011;7766;51.534;6.722;2023-07-22T05:32:59;9.17;;;6.43;;
15331;SDS011;7766;51.534;6.722;2023-07-22T05:33:59;6.90;;;5.63;;
15331;SDS011;7766;51.534;6.722;2023-07-22T05:35:00;9.87;;;7.27;;
15331;SDS011;7766;51.534;6.722;2023-07-22T05:36:04;7.57;;;6.50;;
15331;SDS011;7766;51.534;6.722;2023-07-22T05:37:05;9.97;;;6.70;;
15331;SDS011;7766;51.534;6.722;2023-07-22T05:38:06;10.90;;;6.77;;
15331;SDS011;7766;51.534;6.722;2023-07-22T05:39:07;10.00;;;6.40;;
15331;SDS011;7766;51.534;6.722;2023-07-22T05:40:08;10.13;;;6.37;;
15331;SDS011;7766;51.534;6.722;2023-07-22T05:41:10;10.37;;;6.87;;
15331;SDS011;7766;51.534;6.722;2023-07-22T05:42:11;10.10;;;6.20;;
15331;SDS011;7766;51.534;6.722;2023-07-22T05:43:13;8.43;;;5.67;;
15331;SDS011;7766;51.534;6.722;2023-07-22T05:44:14;8.30;;;6.20;;
15331;SDS011;7766;51.534;6.722;2023-07-22T05:45:15;7.43;;;6.47;;
15331;SDS011;7766;51.534;6.722;2023-07-22T05:46:16;10.43;;;6.70;;
15331;SDS011;7766;51.534;6.722;2023-07-22T05:47:17;9.17;;;6.27;;
15331;SDS011;7766;51.534;6.722;2023-07-22T05:48:17;9.40;;;6.60;;
15331;SDS011;7766;51.534;6.722;2023-07-22T05:49:18;8.73;;;6.63;;
15331;SDS011;7766;51.534;6.722;2023-07-22T05:50:19;7.30;;;5.23;;
15331;SDS011;7766;51.534;6.722;2023-07-22T05:51:21;10.57;;;6.70;;
15331;SDS011;7766;51.534;6.722;2023-07-22T05:52:22;11.13;;;6.30;;
15331;SDS011;7766;51.534;6.722;2023-07-22T05:53:23;9.47;;;6.07;;
15331;SDS011;7766;51.534;6.722;2023-07-22T05:54:24;10.83;;;6.70;;
15331;SDS011;7766;51.534;6.722;2023-07-22T05:55:25;7.77;;;6.10;;
15331;SDS011;7766;51.534;6.722;2023-07-22T05:56:26;10.70;;;6.40;;
15331;SDS011;7766;51.534;6.722;2023-07-22T05:57:27;9.80;;;6.93;;
15331;SDS011;7766;51.534;6.722;2023-07-22T05:58:28;8.57;;;6.23;;
15331;SDS011;7766;51.534;6.722;2023-07-22T05:59:30;8.33;;;6.50;;
15331;SDS011;7766;51.534;6.722;2023-07-22T06:00:32;7.63;;;6.23;;
15331;SDS011;7766;51.534;6.722;2023-07-22T06:01:33;9.00;;;6.50;;
15331;SDS011;7766;51.534;6.722;2023-07-22T06:02:34;7.90;;;6.37;;
15331;SDS011;7766;51.534;6.722;2023-07-22T06:03:35;9.53;;;6.73;;
15331;SDS011;7766;51.534;6.722;2023-07-22T06:04:37;9.37;;;6.80;;
15331;SDS011;7766;51.534;6.722;2023-07-22T06:05:38;9.40;;;6.70;;
15331;SDS011;7766;51.534;6.722;2023-07-22T06:06:39;10.00;;;6.50;;
15331;SDS011;7766;51.534;6.722;2023-07-22T06:07:40;8.57;;;6.67;;
15331;SDS011;7766;51.534;6.722;2023-07-22T06:08:42;10.33;;;6.60;;
15331;SDS011;7766;51.534;6.722;2023-07-22T06:09:42;10.63;;;7.27;;
15331;SDS011;7766;51.534;6.722;2023-07-22T06:10:44;9.73;;;7.33;;
15331;SDS011;7766;51.534;6.722;2023-07-22T06:11:44;10.40;;;7.23;;
15331;SDS011;7766;51.534;6.722;2023-07-22T06:12:45;7.57;;;6.27;;
15331;SDS011;7766;51.534;6.722;2023-07-22T06:13:47;11.33;;;6.70;;